Time;durP1;ratioP1;P1;durP2;ratioP2;P2;SDS_P1;SDS_P2;PMS_P1;PMS_P2;Temp;Humidity;BMP_temperature;BMP_pressure;BME280_temperature;BME280_humidity;BME280_pressure;Samples;Min_cycle;Max_cycle;Signal;HPM_P1;HPM_P2
2021/10/21 00:01:08;;;;;;;7.03;6.32;;;15.00;99.90;;;;;;5015330;28;20072;-75
2021/10/21 00:03:35;;;;;;;8.02;6.45;;;15.00;99.90;;;;;;5014905;28;20038;-75
2021/10/21 00:06:02;;;;;;;8.95;7.25;;;15.00;99.90;;;;;;4996917;28;20033;-74
2021/10/21 00:08:27;;;;;;;8.77;5.47;;;15.00;99.90;;;;;;5014377;28;20041;-74
2021/10/21 00:10:53;;;;;;;8.73;6.43;;;15.30;99.90;;;;;;5014236;28;22071;-75
2021/10/21 00:13:19;;;;;;;9.02;6.72;;;15.20;99.90;;;;;;5014447;28;20498;-75
2021/10/21 00:15:44;;;;;;;7.65;6.95;;;15.10;99.90;;;;;;5014697;28;20041;-74
2021/10/21 00:18:10;;;;;;;8.02;6.50;;;15.10;99.90;;;;;;5002629;28;20032;-75
2021/10/21 00:20:36;;;;;;;9.50;6.95;;;15.10;99.90;;;;;;5014763;28;20022;-75
2021/10/21 00:23:02;;;;;;;8.98;6.47;;;15.10;99.90;;;;;;5014977;28;20053;-74
2021/10/21 00:25:28;;;;;;;11.93;7.78;;;15.10;99.90;;;;;;4997247;28;20026;-74
2021/10/21 00:27:53;;;;;;;8.40;7.40;;;15.30;99.90;;;;;;5014913;28;20041;-74
2021/10/21 00:30:19;;;;;;;9.50;7.47;;;15.40;99.90;;;;;;5014640;28;20022;-75
2021/10/21 00:32:45;;;;;;;8.60;7.68;;;15.30;99.90;;;;;;5014866;28;20022;-76
2021/10/21 00:35:11;;;;;;;9.38;7.13;;;15.50;99.90;;;;;;5014852;28;20055;-75
2021/10/21 00:37:36;;;;;;;8.73;7.22;;;15.50;99.90;;;;;;5014647;28;20030;-75
2021/10/21 00:40:04;;;;;;;9.18;8.13;;;15.40;99.90;;;;;;5014331;28;20022;-75
2021/10/21 00:42:29;;;;;;;8.48;7.38;;;15.20;99.90;;;;;;5014342;28;20614;-76
2021/10/21 00:44:55;;;;;;;10.02;8.27;;;15.10;99.90;;;;;;5014414;28;20032;-74
2021/10/21 00:47:21;;;;;;;8.25;7.43;;;15.00;99.90;;;;;;4995433;28;20504;-75
2021/10/21 00:49:47;;;;;;;7.93;7.22;;;14.90;99.90;;;;;;5013677;28;20026;-75
2021/10/21 00:52:13;;;;;;;8.63;7.72;;;14.80;99.90;;;;;;5014346;28;20440;-76
2021/10/21 00:54:39;;;;;;;8.20;7.13;;;14.70;99.90;;;;;;5013792;28;20068;-74
2021/10/21 00:57:07;;;;;;;9.02;7.18;;;14.80;99.90;;;;;;5022575;28;20089;-75
2021/10/21 00:59:33;;;;;;;8.02;6.35;;;14.70;99.90;;;;;;4997842;28;20030;-74
2021/10/21 01:02:00;;;;;;;8.73;6.07;;;14.80;99.90;;;;;;5014113;28;20064;-75
2021/10/21 01:04:26;;;;;;;8.30;5.95;;;14.70;99.90;;;;;;5013409;28;20532;-74
2021/10/21 01:06:53;;;;;;;7.47;6.32;;;14.70;99.90;;;;;;5013520;28;20045;-75
2021/10/21 01:09:19;;;;;;;9.13;6.82;;;14.70;99.90;;;;;;5010819;28;20409;-75
2021/10/21 01:11:45;;;;;;;7.47;6.07;;;14.70;99.90;;;;;;4995897;28;20022;-73
2021/10/21 01:14:10;;;;;;;6.68;5.95;;;14.80;99.90;;;;;;5013603;28;20034;-74
2021/10/21 01:16:39;;;;;;;6.10;5.50;;;14.80;99.90;;;;;;5012985;28;20033;-75
2021/10/21 01:19:14;;;;;;;6.95;5.88;;;14.90;99.90;;;;;;5013159;28;20029;-74
2021/10/21 01:21:39;;;;;;;6.15;5.55;;;15.00;99.90;;;;;;5024704;28;20032;-73
2021/10/21 01:24:05;;;;;;;7.03;5.50;;;15.00;99.90;;;;;;5034042;28;20089;-75
2021/10/21 01:26:30;;;;;;;7.18;5.82;;;15.00;99.90;;;;;;5017531;28;20040;-74
2021/10/21 01:28:56;;;;;;;5.45;4.95;;;15.00;99.90;;;;;;5013419;28;20033;-75
2021/10/21 01:31:21;;;;;;;5.68;5.18;;;15.00;99.90;;;;;;5013360;28;20034;-75
2021/10/21 01:33:47;;;;;;;4.88;4.38;;;15.00;99.90;;;;;;5013181;28;20026;-75
2021/10/21 01:36:13;;;;;;;5.47;4.97;;;15.00;99.90;;;;;;5012969;28;20084;-74
2021/10/21 01:38:38;;;;;;;5.50;5.00;;;15.10;99.90;;;;;;5007605;28;20021;-76
2021/10/21 01:41:04;;;;;;;5.47;4.97;;;15.00;99.90;;;;;;5013032;28;20421;-74
2021/10/21 01:43:30;;;;;;;5.20;4.80;;;15.00;99.90;;;;;;5013105;28;20034;-74
2021/10/21 01:45:55;;;;;;;7.20;5.32;;;15.00;99.90;;;;;;5013230;28;20029;-76
2021/10/21 01:48:21;;;;;;;6.22;5.72;;;15.10;99.90;;;;;;5012783;28;20041;-76
2021/10/21 01:50:47;;;;;;;6.10;5.13;;;15.00;99.90;;;;;;4995245;28;20037;-76
2021/10/21 01:53:13;;;;;;;5.32;4.82;;;15.00;99.90;;;;;;5012603;28;20025;-74
2021/10/21 01:55:39;;;;;;;4.40;4.05;;;15.00;99.90;;;;;;5007249;28;20053;-75
2021/10/21 01:58:05;;;;;;;4.80;4.40;;;15.00;99.90;;;;;;5013020;28;20030;-74
2021/10/21 02:00:30;;;;;;;4.63;4.15;;;15.00;99.90;;;;;;5013025;28;20029;-74
2021/10/21 02:02:57;;;;;;;5.70;5.03;;;15.10;99.90;;;;;;5012697;28;20064;-75
2021/10/21 02:05:22;;;;;;;5.43;3.72;;;15.00;99.90;;;;;;5012660;28;20088;-74
2021/10/21 02:07:48;;;;;;;5.28;4.30;;;15.00;99.90;;;;;;5013458;28;20418;-74
2021/10/21 02:10:16;;;;;;;5.28;4.78;;;15.00;99.90;;;;;;5013818;28;20069;-74
2021/10/21 02:12:42;;;;;;;4.90;4.15;;;15.00;99.90;;;;;;5014126;28;20022;-75
2021/10/21 02:15:08;;;;;;;4.30;3.90;;;15.00;99.90;;;;;;5013458;28;20505;-75
2021/10/21 02:17:34;;;;;;;4.15;3.65;;;15.00;99.90;;;;;;5013594;28;20065;-76
2021/10/21 02:19:59;;;;;;;4.60;4.20;;;15.10;99.90;;;;;;5019087;28;20034;-74
2021/10/21 02:22:25;;;;;;;4.10;3.70;;;15.00;99.90;;;;;;5033337;28;20049;-75
2021/10/21 02:24:51;;;;;;;4.18;3.28;;;15.10;99.90;;;;;;5035267;28;20059;-73
2021/10/21 02:27:16;;;;;;;4.15;3.25;;;15.00;99.90;;;;;;5035465;28;20068;-72
2021/10/21 02:29:42;;;;;;;4.00;3.60;;;15.10;99.90;;;;;;5023574;28;20022;-74
2021/10/21 02:32:08;;;;;;;3.47;3.17;;;15.10;99.90;;;;;;4996357;28;20096;-74
2021/10/21 02:34:33;;;;;;;3.90;2.83;;;15.20;99.90;;;;;;5012747;28;20057;-75
2021/10/21 02:36:59;;;;;;;2.65;2.45;;;15.30;99.90;;;;;;5012198;28;20044;-74
2021/10/21 02:39:24;;;;;;;3.60;3.20;;;15.20;99.90;;;;;;5012418;28;20038;-76
2021/10/21 02:41:50;;;;;;;3.53;2.88;;;15.20;99.90;;;;;;5012603;28;20061;-75
2021/10/21 02:44:16;;;;;;;4.10;3.65;;;15.20;99.90;;;;;;5012701;28;20577;-74
2021/10/21 02:46:42;;;;;;;4.82;2.45;;;15.20;99.90;;;;;;5012188;28;20117;-74
2021/10/21 02:49:07;;;;;;;2.72;2.42;;;15.20;99.90;;;;;;5012626;28;20065;-75
2021/10/21 02:51:33;;;;;;;2.85;2.42;;;15.30;99.90;;;;;;5012139;28;20032;-74
2021/10/21 02:53:59;;;;;;;3.17;2.83;;;15.30;99.90;;;;;;5012362;28;20030;-73
2021/10/21 02:56:24;;;;;;;3.83;2.53;;;15.30;99.90;;;;;;5011464;28;20090;-74
2021/10/21 02:58:50;;;;;;;3.03;1.80;;;15.40;99.90;;;;;;4995468;28;20026;-75
2021/10/21 03:01:15;;;;;;;2.75;2.13;;;15.40;99.90;;;;;;5012698;28;20026;-74
2021/10/21 03:03:41;;;;;;;1.90;1.80;;;15.40;99.90;;;;;;5011918;28;20482;-74
2021/10/21 03:06:06;;;;;;;3.95;2.35;;;15.50;99.90;;;;;;5011819;28;20022;-75
2021/10/21 03:08:32;;;;;;;2.53;2.33;;;15.60;99.90;;;;;;5011505;28;20093;-75
2021/10/21 03:10:57;;;;;;;2.50;2.30;;;15.60;99.90;;;;;;5013828;28;20066;-74
2021/10/21 03:13:23;;;;;;;2.45;1.90;;;15.70;99.90;;;;;;5015498;28;20048;-74
2021/10/21 03:15:49;;;;;;;3.22;2.00;;;15.70;99.90;;;;;;5015736;28;20501;-75
2021/10/21 03:18:14;;;;;;;2.05;1.95;;;15.70;99.90;;;;;;5015459;28;20596;-73
2021/10/21 03:20:40;;;;;;;2.13;1.73;;;15.70;99.90;;;;;;5016035;28;20026;-74
2021/10/21 03:23:05;;;;;;;2.38;1.77;;;15.80;99.90;;;;;;5015820;28;20068;-73
2021/10/21 03:25:31;;;;;;;1.80;1.60;;;15.80;99.90;;;;;;5015828;28;20061;-74
2021/10/21 03:27:57;;;;;;;3.03;1.50;;;15.80;99.90;;;;;;5015365;28;20021;-74
2021/10/21 03:30:23;;;;;;;1.50;1.40;;;15.80;99.90;;;;;;5016134;28;20077;-76
2021/10/21 03:32:49;;;;;;;2.85;1.50;;;15.80;99.90;;;;;;5015063;28;20022;-75
2021/10/21 03:35:14;;;;;;;3.03;1.45;;;15.70;99.90;;;;;;5015538;28;20401;-74
2021/10/21 03:37:40;;;;;;;2.17;1.40;;;15.60;99.90;;;;;;5013332;28;20022;-75
2021/10/21 03:40:07;;;;;;;1.98;1.15;;;15.50;99.90;;;;;;5015759;28;20038;-75
2021/10/21 03:42:33;;;;;;;2.97;1.30;;;15.50;99.90;;;;;;5015274;28;20029;-74
2021/10/21 03:44:58;;;;;;;3.00;1.33;;;15.40;99.90;;;;;;5015262;28;20164;-76
2021/10/21 03:47:24;;;;;;;2.92;1.50;;;15.20;99.90;;;;;;5014924;28;20030;-75
2021/10/21 03:49:51;;;;;;;2.30;1.20;;;15.20;99.90;;;;;;5015364;28;20093;-73
2021/10/21 03:52:20;;;;;;;1.60;1.15;;;15.20;99.90;;;;;;5015673;28;20022;-74
2021/10/21 03:54:46;;;;;;;2.30;1.48;;;15.30;99.90;;;;;;5015894;28;20097;-76
2021/10/21 03:57:12;;;;;;;1.90;1.05;;;15.30;99.90;;;;;;5015091;28;20032;-73
2021/10/21 03:59:38;;;;;;;1.63;1.00;;;15.30;99.90;;;;;;5014693;28;20409;-74
2021/10/21 04:02:04;;;;;;;1.83;0.90;;;15.30;99.90;;;;;;5015349;28;20103;-75
2021/10/21 04:04:29;;;;;;;2.75;1.10;;;15.20;99.90;;;;;;4996802;28;20400;-74
2021/10/21 04:06:55;;;;;;;0.73;0.73;;;15.20;99.90;;;;;;5017562;28;20032;-75
2021/10/21 04:09:21;;;;;;;1.27;0.75;;;15.20;99.90;;;;;;5015403;28;20026;-75
2021/10/21 04:11:46;;;;;;;0.98;0.77;;;15.30;99.90;;;;;;5014818;28;20025;-75
2021/10/21 04:14:12;;;;;;;1.15;0.60;;;15.30;99.90;;;;;;5014600;28;20038;-75
2021/10/21 04:16:37;;;;;;;1.63;0.70;;;15.20;99.90;;;;;;5014258;28;20160;-73
2021/10/21 04:19:03;;;;;;;2.05;0.98;;;15.30;99.90;;;;;;5025944;28;20030;-74
2021/10/21 04:21:29;;;;;;;1.38;0.70;;;15.50;99.90;;;;;;5033339;28;20022;-76
2021/10/21 04:23:55;;;;;;;0.93;0.60;;;15.40;99.90;;;;;;5015640;28;20034;-74
2021/10/21 04:26:21;;;;;;;0.80;0.60;;;15.40;99.90;;;;;;5015113;28;20490;-73
2021/10/21 04:28:47;;;;;;;1.00;0.70;;;15.30;99.90;;;;;;4996451;28;20486;-75
2021/10/21 04:31:12;;;;;;;1.23;0.70;;;15.20;99.90;;;;;;4996453;28;20037;-75
2021/10/21 04:33:38;;;;;;;3.22;0.75;;;15.20;99.90;;;;;;5016019;28;20048;-75
2021/10/21 04:36:04;;;;;;;1.02;0.70;;;15.10;99.90;;;;;;5014354;28;20041;-74
2021/10/21 04:38:29;;;;;;;2.60;0.60;;;15.10;99.90;;;;;;5014029;28;20030;-74
2021/10/21 04:40:55;;;;;;;1.23;0.60;;;15.00;99.90;;;;;;5014040;28;20093;-75
2021/10/21 04:43:20;;;;;;;1.48;0.70;;;14.90;99.90;;;;;;4996509;28;20056;-75
2021/10/21 04:45:46;;;;;;;3.30;1.75;;;14.90;99.90;;;;;;5016798;28;20029;-74
2021/10/21 04:48:12;;;;;;;3.17;0.80;;;14.90;99.90;;;;;;5015763;28;20041;-74
2021/10/21 04:50:38;;;;;;;1.75;0.77;;;14.90;99.90;;;;;;5015408;28;20037;-74
2021/10/21 04:53:04;;;;;;;0.75;0.60;;;14.70;99.90;;;;;;5016103;28;20030;-74
2021/10/21 04:55:34;;;;;;;1.73;0.60;;;14.70;99.90;;;;;;5015432;28;20029;-75
2021/10/21 04:58:00;;;;;;;1.60;0.90;;;14.50;99.90;;;;;;5014352;28;20037;-74
2021/10/21 05:00:26;;;;;;;1.70;0.50;;;14.50;99.90;;;;;;4993586;28;20042;-74
2021/10/21 05:02:51;;;;;;;1.70;0.52;;;14.60;99.90;;;;;;5019429;28;20032;-74
2021/10/21 05:05:17;;;;;;;3.50;0.82;;;14.50;99.90;;;;;;5018053;28;20034;-73
2021/10/21 05:07:44;;;;;;;10.02;1.25;;;14.40;99.90;;;;;;5016585;28;20032;-74
2021/10/21 05:10:10;;;;;;;2.20;0.70;;;14.30;99.90;;;;;;4999969;28;20032;-74
2021/10/21 05:12:36;;;;;;;3.67;1.08;;;14.30;99.90;;;;;;5016441;28;20104;-74
2021/10/21 05:15:02;;;;;;;4.32;0.70;;;14.30;99.90;;;;;;5018856;28;20056;-73
2021/10/21 05:17:27;;;;;;;5.40;0.85;;;14.30;99.90;;;;;;5020627;28;20029;-74
2021/10/21 05:19:53;;;;;;;3.60;0.93;;;14.30;99.90;;;;;;5018137;28;20045;-74
2021/10/21 05:22:19;;;;;;;1.52;0.75;;;14.20;99.90;;;;;;5018975;28;20037;-74
2021/10/21 05:24:46;;;;;;;7.20;1.30;;;14.20;99.90;;;;;;5017449;28;20056;-75
2021/10/21 05:27:12;;;;;;;4.70;0.65;;;14.10;99.90;;;;;;5015201;28;20014;-74
2021/10/21 05:29:38;;;;;;;3.47;1.02;;;14.10;99.90;;;;;;5020855;28;20492;-73
2021/10/21 05:32:07;;;;;;;5.32;0.95;;;14.10;99.90;;;;;;5028175;28;20016;-73
2021/10/21 05:34:34;;;;;;;2.28;0.70;;;14.00;99.90;;;;;;5035519;28;20081;-74
2021/10/21 05:37:01;;;;;;;2.88;0.60;;;14.10;99.90;;;;;;5036008;28;20045;-74
2021/10/21 05:39:28;;;;;;;6.70;0.80;;;14.00;99.90;;;;;;5029353;28;20050;-73
2021/10/21 05:41:54;;;;;;;6.22;0.70;;;14.00;99.90;;;;;;5021437;28;20029;-74
2021/10/21 05:44:19;;;;;;;6.63;1.10;;;13.90;99.90;;;;;;5016798;28;20037;-75
2021/10/21 05:46:47;;;;;;;2.10;0.80;;;13.90;99.90;;;;;;5040470;22;20026;-72
2021/10/21 05:49:12;;;;;;;5.95;1.00;;;13.90;99.90;;;;;;4986174;28;20034;-72
2021/10/21 05:51:38;;;;;;;4.45;0.73;;;13.90;99.90;;;;;;4999333;28;20022;-72
2021/10/21 05:54:03;;;;;;;1.80;0.80;;;13.80;99.90;;;;;;4998794;28;20034;-71
2021/10/21 05:56:29;;;;;;;3.95;0.80;;;13.70;99.90;;;;;;5003675;28;20039;-70
2021/10/21 05:58:54;;;;;;;5.28;1.00;;;13.80;99.90;;;;;;4980748;28;20089;-72
2021/10/21 06:01:20;;;;;;;2.80;0.70;;;13.70;99.90;;;;;;4987813;28;20034;-73
2021/10/21 06:03:46;;;;;;;4.53;0.80;;;13.70;99.90;;;;;;4977813;28;20058;-72
2021/10/21 06:06:12;;;;;;;6.80;0.68;;;13.70;99.90;;;;;;4994149;28;20023;-72
2021/10/21 06:08:37;;;;;;;6.60;0.95;;;13.70;99.90;;;;;;5000397;28;20068;-73
2021/10/21 06:11:04;;;;;;;7.00;1.38;;;13.70;99.90;;;;;;4997568;28;20506;-73
2021/10/21 06:13:35;;;;;;;4.28;0.90;;;13.70;99.90;;;;;;4999712;28;20022;-72
2021/10/21 06:16:01;;;;;;;6.70;0.90;;;13.70;99.90;;;;;;5000176;28;20022;-72
2021/10/21 06:18:27;;;;;;;4.15;0.80;;;13.80;99.90;;;;;;4993759;28;20471;-72
2021/10/21 06:20:53;;;;;;;2.42;0.98;;;13.80;99.90;;;;;;4977089;28;20033;-70
2021/10/21 06:23:19;;;;;;;7.65;1.23;;;13.90;99.90;;;;;;4993754;28;20105;-72
2021/10/21 06:25:45;;;;;;;8.60;1.80;;;13.90;99.90;;;;;;4976177;28;20037;-72
2021/10/21 06:28:11;;;;;;;7.13;1.63;;;13.90;99.90;;;;;;4993542;28;20343;-71
2021/10/21 06:30:37;;;;;;;3.58;1.27;;;13.80;99.90;;;;;;4993162;28;20027;-73
2021/10/21 06:33:03;;;;;;;3.92;1.73;;;13.90;99.90;;;;;;4976153;28;20030;-72
2021/10/21 06:35:30;;;;;;;3.17;1.17;;;13.90;99.90;;;;;;4976807;28;20053;-72
2021/10/21 06:37:56;;;;;;;3.53;1.10;;;13.90;99.90;;;;;;4995208;28;20027;-72
2021/10/21 06:40:22;;;;;;;4.30;1.40;;;13.90;99.90;;;;;;4976796;28;20034;-71
2021/10/21 06:42:47;;;;;;;4.32;0.85;;;14.00;99.90;;;;;;4994104;28;20034;-72
2021/10/21 06:45:13;;;;;;;3.67;0.95;;;14.00;99.90;;;;;;4997826;28;20403;-72
2021/10/21 06:47:40;;;;;;;7.50;1.23;;;13.90;99.90;;;;;;4991310;28;20113;-71
2021/10/21 06:50:10;;;;;;;5.05;1.33;;;13.90;99.90;;;;;;4987549;28;20093;-71
2021/10/21 06:52:36;;;;;;;3.00;0.73;;;13.90;99.90;;;;;;5004506;28;20082;-74
2021/10/21 06:55:03;;;;;;;2.88;1.10;;;14.10;99.90;;;;;;5001881;28;20402;-72
2021/10/21 06:57:28;;;;;;;3.38;1.10;;;14.10;99.90;;;;;;4981777;28;20033;-73
2021/10/21 06:59:54;;;;;;;6.63;0.73;;;14.20;99.90;;;;;;4980803;28;20478;-72
2021/10/21 07:02:20;;;;;;;5.60;0.80;;;14.20;99.90;;;;;;5003733;28;20035;-72
2021/10/21 07:04:45;;;;;;;5.88;0.90;;;14.20;99.90;;;;;;5001898;28;20026;-71
2021/10/21 07:07:11;;;;;;;5.47;0.85;;;14.30;99.90;;;;;;4978800;28;20030;-72
2021/10/21 07:09:36;;;;;;;3.00;0.80;;;14.30;99.90;;;;;;4992346;28;20106;-73
2021/10/21 07:12:03;;;;;;;4.53;1.08;;;14.40;99.90;;;;;;4977158;28;20479;-71
2021/10/21 07:14:29;;;;;;;3.45;1.05;;;14.40;99.90;;;;;;4964950;28;20488;-70
2021/10/21 07:16:54;;;;;;;11.90;1.10;;;14.40;99.90;;;;;;4998314;28;20060;-71
2021/10/21 07:19:20;;;;;;;10.18;1.25;;;14.50;99.90;;;;;;4979408;28;20026;-72
2021/10/21 07:21:45;;;;;;;3.42;0.70;;;14.50;99.90;;;;;;4996591;28;20057;-71
2021/10/21 07:24:11;;;;;;;3.72;0.57;;;14.50;99.90;;;;;;4980854;28;20455;-72
2021/10/21 07:26:37;;;;;;;2.55;0.70;;;14.50;99.90;;;;;;4995093;28;20026;-70
2021/10/21 07:29:02;;;;;;;2.38;0.52;;;14.60;99.90;;;;;;4993337;28;20034;-72
2021/10/21 07:31:28;;;;;;;1.67;0.55;;;14.70;99.90;;;;;;4996646;28;20022;-73
2021/10/21 07:33:54;;;;;;;1.58;0.50;;;14.80;99.90;;;;;;4996682;28;20034;-71
2021/10/21 07:36:20;;;;;;;4.00;0.88;;;15.00;99.90;;;;;;4996338;28;20069;-71
2021/10/21 07:38:46;;;;;;;5.35;0.80;;;15.10;99.90;;;;;;4996114;28;20054;-72
2021/10/21 07:41:11;;;;;;;3.28;0.68;;;15.20;99.90;;;;;;4978845;28;20029;-73
2021/10/21 07:43:37;;;;;;;3.28;0.95;;;15.30;99.90;;;;;;4995440;28;20034;-73
2021/10/21 07:46:04;;;;;;;3.88;0.82;;;15.20;99.90;;;;;;4978819;28;20030;-72
2021/10/21 07:48:30;;;;;;;2.97;1.88;;;15.10;99.90;;;;;;4995654;28;20033;-71
2021/10/21 07:50:55;;;;;;;1.20;0.30;;;15.00;99.90;;;;;;4996661;28;20389;-71
2021/10/21 07:53:21;;;;;;;7.70;0.68;;;15.00;99.90;;;;;;4996860;28;20030;-70
2021/10/21 07:55:46;;;;;;;1.73;0.70;;;15.10;99.90;;;;;;4996155;28;20022;-73
2021/10/21 07:58:12;;;;;;;2.55;0.57;;;15.10;99.90;;;;;;4996493;28;20041;-71
2021/10/21 08:00:38;;;;;;;1.88;0.52;;;15.10;99.90;;;;;;4995594;28;20058;-72
2021/10/21 08:03:04;;;;;;;1.75;0.55;;;15.10;99.90;;;;;;4982004;28;20090;-71
2021/10/21 08:05:30;;;;;;;2.67;0.52;;;15.00;99.90;;;;;;4988648;28;20026;-76
2021/10/21 08:07:56;;;;;;;5.32;0.82;;;15.00;99.90;;;;;;4980176;28;20094;-75
2021/10/21 08:10:23;;;;;;;2.95;0.50;;;14.90;99.90;;;;;;4979049;28;20030;-76
2021/10/21 08:12:50;;;;;;;7.38;0.50;;;14.90;99.90;;;;;;4996988;28;20101;-75
2021/10/21 08:15:17;;;;;;;3.70;0.50;;;15.00;99.90;;;;;;5002390;28;20093;-75
2021/10/21 08:17:44;;;;;;;3.92;0.35;;;15.00;99.90;;;;;;5014561;28;20027;-74
2021/10/21 08:20:11;;;;;;;2.40;0.30;;;15.10;99.90;;;;;;4997672;28;20026;-72
2021/10/21 08:22:42;;;;;;;1.67;0.40;;;15.10;99.90;;;;;;4987460;28;20604;-74
2021/10/21 08:25:08;;;;;;;1.88;0.60;;;15.10;99.90;;;;;;4987542;28;20418;-73
2021/10/21 08:27:34;;;;;;;2.55;0.40;;;15.10;99.90;;;;;;4980964;28;20034;-74
2021/10/21 08:30:00;;;;;;;1.02;0.40;;;15.20;99.90;;;;;;4997608;28;20018;-75
2021/10/21 08:32:25;;;;;;;1.70;0.50;;;15.30;99.90;;;;;;4979309;28;20406;-75
2021/10/21 08:34:51;;;;;;;1.73;0.50;;;15.40;99.90;;;;;;4997529;28;20081;-75
2021/10/21 08:37:17;;;;;;;6.13;0.55;;;15.50;99.90;;;;;;4995579;28;20034;-74
2021/10/21 08:39:43;;;;;;;4.07;0.30;;;15.20;99.90;;;;;;4979481;28;20027;-76
2021/10/21 08:42:10;;;;;;;3.13;0.40;;;15.10;99.90;;;;;;4978770;28;20038;-76
2021/10/21 08:44:37;;;;;;;0.98;0.30;;;14.90;99.90;;;;;;5005665;28;20029;-73
2021/10/21 08:47:03;;;;;;;4.72;0.40;;;15.00;99.90;;;;;;4999430;28;20034;-76
2021/10/21 08:49:30;;;;;;;0.98;0.40;;;15.10;99.90;;;;;;4999806;28;20022;-75
2021/10/21 08:51:57;;;;;;;1.85;0.38;;;15.00;99.90;;;;;;5000592;28;20035;-74
2021/10/21 08:54:23;;;;;;;1.48;0.30;;;14.60;99.90;;;;;;4999719;28;20450;-74
2021/10/21 08:56:49;;;;;;;0.57;0.30;;;14.30;99.90;;;;;;4996342;28;20014;-75
2021/10/21 08:59:15;;;;;;;0.60;0.28;;;14.00;99.90;;;;;;4979628;28;20027;-75
2021/10/21 09:01:45;;;;;;;1.10;0.43;;;14.00;99.90;;;;;;5000418;28;20541;-74
2021/10/21 09:09:25;;;;;;;1.73;0.50;;;14.10;99.90;;;;;;4986489;28;20026;-76
2021/10/21 09:12:11;;;;;;;1.15;0.20;;;14.30;99.90;;;;;;4995450;28;20271;-75
2021/10/21 09:14:50;;;;;;;0.75;0.30;;;14.30;99.90;;;;;;4995211;28;20022;-76
2021/10/21 09:17:17;;;;;;;5.05;0.40;;;14.30;99.90;;;;;;4995043;28;20029;-75
2021/10/21 09:19:43;;;;;;;3.55;1.55;;;14.40;99.90;;;;;;4995763;28;20036;-76
2021/10/21 09:22:30;;;;;;;0.77;0.28;;;14.30;99.90;;;;;;4995713;28;20102;-73
2021/10/21 09:25:10;;;;;;;2.38;0.30;;;14.10;99.90;;;;;;4995477;28;20478;-75
2021/10/21 09:27:36;;;;;;;2.30;0.50;;;14.00;99.90;;;;;;4978087;28;20535;-73
2021/10/21 09:30:06;;;;;;;1.40;0.38;;;14.00;99.90;;;;;;4988820;28;20031;-75
2021/10/21 09:32:32;;;;;;;1.65;0.57;;;14.00;99.90;;;;;;4973923;28;20029;-74
2021/10/21 09:35:02;;;;;;;0.52;0.20;;;14.20;99.90;;;;;;4991660;28;20091;-74
2021/10/21 09:37:45;;;;;;;0.20;0.20;;;14.20;99.90;;;;;;4996140;28;20049;-74
2021/10/21 09:40:21;;;;;;;2.53;0.20;;;14.10;99.90;;;;;;4995596;28;20141;-75
2021/10/21 09:42:55;;;;;;;3.40;0.43;;;14.10;99.90;;;;;;4977507;28;20478;-76
2021/10/21 09:45:43;;;;;;;4.85;0.20;;;14.20;99.90;;;;;;4994639;28;20092;-74
2021/10/21 09:48:09;;;;;;;5.35;0.30;;;14.20;99.90;;;;;;4993085;28;20038;-75
2021/10/21 09:50:37;;;;;;;0.98;0.20;;;14.10;99.90;;;;;;4995700;28;20064;-73
2021/10/21 09:53:03;;;;;;;1.17;0.13;;;14.00;99.90;;;;;;4974233;28;20023;-74
2021/10/21 09:55:28;;;;;;;1.35;0.13;;;13.80;99.90;;;;;;4994708;28;20501;-74
2021/10/21 09:58:02;;;;;;;1.75;0.20;;;13.80;99.90;;;;;;4994893;28;20065;-74
2021/10/21 10:00:33;;;;;;;1.08;0.32;;;13.90;99.90;;;;;;4995032;28;20026;-75
2021/10/21 10:03:20;;;;;;;1.13;0.52;;;14.10;99.90;;;;;;4996036;28;20482;-77
2021/10/21 10:05:54;;;;;;;0.63;0.20;;;14.10;99.90;;;;;;4978878;28;20035;-78
2021/10/21 10:08:21;;;;;;;2.70;0.40;;;13.90;99.90;;;;;;4995718;28;20030;-77
2021/10/21 10:10:49;;;;;;;1.40;0.20;;;13.90;99.90;;;;;;4975500;28;20037;-76
2021/10/21 10:13:17;;;;;;;0.63;0.30;;;13.70;99.90;;;;;;4992375;28;20067;-77
2021/10/21 10:15:44;;;;;;;1.10;0.32;;;13.60;99.90;;;;;;5010473;28;20026;-73
2021/10/21 10:18:30;;;;;;;2.63;0.40;;;13.70;99.90;;;;;;4986837;28;20039;-77
2021/10/21 10:21:15;;;;;;;0.93;0.50;;;13.50;99.90;;;;;;5002367;28;20437;-74
2021/10/21 10:23:54;;;;;;;4.43;0.40;;;13.60;99.90;;;;;;5008761;28;20026;-74
2021/10/21 10:26:42;;;;;;;1.05;0.30;;;13.60;99.90;;;;;;4969598;28;20114;-73
2021/10/21 10:29:09;;;;;;;4.45;1.00;;;13.50;99.90;;;;;;4993158;28;20089;-74
2021/10/21 10:31:43;;;;;;;1.83;0.80;;;13.70;99.90;;;;;;4984197;28;20027;-74
2021/10/21 10:34:32;;;;;;;3.38;0.73;;;13.90;99.90;;;;;;4990181;28;20026;-77
2021/10/21 10:37:12;;;;;;;2.00;0.40;;;14.10;99.90;;;;;;4990499;28;20449;-75
2021/10/21 10:39:55;;;;;;;1.33;0.30;;;14.30;99.90;;;;;;4991551;28;20030;-76
2021/10/21 10:42:36;;;;;;;3.05;1.15;;;14.40;99.90;;;;;;4988538;28;20232;-76
2021/10/21 10:45:05;;;;;;;1.15;0.55;;;14.40;99.90;;;;;;4992197;28;20074;-76
2021/10/21 10:47:53;;;;;;;1.65;0.60;;;14.40;99.60;;;;;;4991737;28;20525;-76
2021/10/21 10:50:22;;;;;;;2.63;0.52;;;14.40;99.90;;;;;;4992508;28;20044;-74
2021/10/21 10:52:55;;;;;;;2.72;0.47;;;14.50;99.60;;;;;;4975558;28;20030;-74
2021/10/21 10:55:22;;;;;;;1.20;0.47;;;14.60;99.50;;;;;;4995831;28;20552;-76
2021/10/21 10:57:48;;;;;;;2.75;0.40;;;14.70;99.50;;;;;;4976732;28;20405;-74
2021/10/21 11:00:32;;;;;;;1.85;0.40;;;14.80;99.60;;;;;;4972572;28;20026;-74
2021/10/21 11:02:58;;;;;;;2.05;0.50;;;15.00;99.60;;;;;;4986000;28;20417;-76
2021/10/21 11:05:47;;;;;;;0.85;0.40;;;14.90;98.90;;;;;;4986895;28;20066;-75
2021/10/21 11:08:14;;;;;;;2.50;0.70;;;14.90;99.50;;;;;;4975664;28;20399;-74
2021/10/21 11:10:46;;;;;;;1.42;0.40;;;15.10;99.30;;;;;;4992976;28;20018;-75
2021/10/21 11:13:34;;;;;;;1.45;0.40;;;15.10;99.10;;;;;;4993321;28;20031;-75
2021/10/21 11:16:00;;;;;;;3.58;0.60;;;15.00;98.90;;;;;;4989699;28;20039;-76
2021/10/21 11:18:34;;;;;;;1.42;0.38;;;14.90;98.70;;;;;;4959136;28;20022;-75
2021/10/21 11:21:02;;;;;;;11.52;0.85;;;15.00;98.60;;;;;;4992952;28;20050;-74
2021/10/21 11:23:27;;;;;;;1.88;0.82;;;14.80;98.20;;;;;;4994102;28;20125;-75
2021/10/21 11:25:56;;;;;;;3.65;0.52;;;14.80;98.80;;;;;;4993609;28;20518;-75
2021/10/21 11:28:30;;;;;;;6.20;0.85;;;14.80;98.30;;;;;;4994829;28;20022;-75
2021/10/21 11:30:57;;;;;;;3.47;0.50;;;14.70;98.00;;;;;;4977938;28;20088;-75
2021/10/21 11:33:23;;;;;;;3.38;0.70;;;14.80;98.50;;;;;;4998684;28;20022;-75
2021/10/21 11:35:51;;;;;;;2.05;0.75;;;15.00;98.30;;;;;;4997276;28;20058;-75
2021/10/21 11:38:19;;;;;;;3.15;0.68;;;15.20;98.20;;;;;;4990389;28;20109;-75
2021/10/21 11:40:50;;;;;;;1.38;0.45;;;15.50;97.80;;;;;;4999690;28;20033;-74
2021/10/21 11:43:39;;;;;;;1.50;0.50;;;15.60;97.20;;;;;;4980888;28;20053;-74
2021/10/21 11:46:08;;;;;;;3.28;1.05;;;15.40;96.70;;;;;;4998336;28;20086;-75
2021/10/21 11:48:42;;;;;;;3.85;1.00;;;15.30;96.20;;;;;;5005110;23;20034;-79
2021/10/21 11:51:14;;;;;;;3.35;0.55;;;15.30;96.60;;;;;;5017114;28;20014;-78
2021/10/21 11:53:40;;;;;;;6.47;0.93;;;15.40;96.50;;;;;;5020141;28;20038;-79
2021/10/21 11:56:06;;;;;;;4.07;0.98;;;15.50;96.60;;;;;;5019885;28;20102;-79
2021/10/21 11:58:36;;;;;;;2.42;0.70;;;15.50;95.70;;;;;;5019870;28;20027;-77
2021/10/21 12:01:04;;;;;;;7.78;1.60;;;15.50;95.50;;;;;;5018601;28;20030;-80
2021/10/21 12:03:35;;;;;;;3.25;0.73;;;15.60;95.50;;;;;;5014801;28;20042;-82
2021/10/21 12:06:01;;;;;;;1.55;0.70;;;15.60;95.40;;;;;;5011732;28;20045;-79
2021/10/21 12:08:27;;;;;;;2.45;0.80;;;15.50;95.60;;;;;;5013865;28;20018;-79
2021/10/21 12:10:55;;;;;;;2.17;0.68;;;15.40;95.00;;;;;;5013235;28;20037;-79
2021/10/21 12:13:26;;;;;;;2.63;0.43;;;15.50;95.40;;;;;;5011939;28;20027;-79
2021/10/21 12:15:55;;;;;;;2.58;0.63;;;15.50;94.90;;;;;;5012967;28;20031;-81
2021/10/21 12:18:21;;;;;;;1.58;0.60;;;15.80;94.60;;;;;;5013773;28;20050;-80
2021/10/21 12:20:51;;;;;;;0.60;0.50;;;15.80;94.00;;;;;;5012520;28;20584;-78
2021/10/21 12:23:44;;;;;;;3.40;0.93;;;15.60;94.00;;;;;;5010891;28;20030;-80
2021/10/21 12:26:24;;;;;;;2.55;0.50;;;15.60;94.40;;;;;;5009983;28;20042;-79
2021/10/21 12:28:52;;;;;;;0.98;0.45;;;15.60;94.80;;;;;;5012169;28;20049;-79
2021/10/21 12:31:20;;;;;;;4.13;1.10;;;15.40;95.00;;;;;;5013323;28;20065;-80
2021/10/21 12:33:53;;;;;;;2.00;0.60;;;15.40;95.30;;;;;;5012944;28;20069;-78
2021/10/21 12:36:23;;;;;;;1.70;0.50;;;15.50;95.20;;;;;;5018197;28;20033;-80
2021/10/21 12:38:52;;;;;;;2.17;0.60;;;15.60;95.90;;;;;;4994086;28;20023;-78
2021/10/21 12:41:20;;;;;;;3.00;0.70;;;15.60;95.30;;;;;;5012609;28;20018;-79
2021/10/21 12:44:20;;;;;;;6.45;1.10;;;15.60;95.30;;;;;;5008632;28;20022;-79
2021/10/21 12:46:46;;;;;;;2.53;0.63;;;15.60;95.20;;;;;;4963562;28;20049;-78
2021/10/21 12:49:17;;;;;;;3.33;0.85;;;15.60;95.40;;;;;;5008939;28;20033;-78
2021/10/21 12:51:45;;;;;;;4.05;0.52;;;15.80;94.60;;;;;;5014273;28;20014;-80
2021/10/21 12:54:31;;;;;;;2.40;0.43;;;15.90;94.80;;;;;;5016959;28;20030;-78